createdAt,value
2022-09-12T00:01:24.144Z,99133.28
2022-09-12T00:03:58.227Z,99137.81
2022-09-12T00:06:30.809Z,99145.06
2022-09-12T00:09:02.965Z,99141.78
2022-09-12T00:11:31.145Z,99147.50
2022-09-12T00:14:00.992Z,99138.38
2022-09-12T00:16:32.171Z,99142.47
2022-09-12T00:19:00.944Z,99147.34
2022-09-12T00:21:28.853Z,99141.97
2022-09-12T00:23:56.215Z,99146.59
2022-09-12T00:26:24.173Z,99141.00
2022-09-12T00:28:52.150Z,99150.09
2022-09-12T00:31:24.139Z,99148.47
2022-09-12T00:33:53.458Z,99157.59
2022-09-12T00:36:24.048Z,99155.47
2022-09-12T00:38:51.547Z,99155.47
2022-09-12T00:41:26.732Z,99150.09
2022-09-12T00:44:04.451Z,99155.94
2022-09-12T00:46:45.613Z,99167.69
2022-09-12T00:49:24.681Z,99159.63
2022-09-12T00:52:18.058Z,99159.63
2022-09-12T00:55:03.829Z,99167.69
2022-09-12T00:57:50.103Z,99170.59
2022-09-12T01:00:21.509Z,99169.19
2022-09-12T01:02:55.050Z,99168.16
2022-09-12T01:05:24.959Z,99173.97
2022-09-12T01:07:54.754Z,99170.72
2022-09-12T01:10:23.875Z,99169.09
2022-09-12T01:12:52.032Z,99170.72
2022-09-12T01:15:19.795Z,99161.63
2022-09-12T01:18:13.989Z,99167.47
2022-09-12T01:21:08.715Z,99165.38
2022-09-12T01:23:44.920Z,99167.47
2022-09-12T01:27:08.504Z,99165.84
2022-09-12T01:30:33.165Z,99165.84
2022-09-12T01:33:31.931Z,99170.38
2022-09-12T01:36:34.486Z,99165.75
2022-09-12T01:39:32.398Z,99156.91
2022-09-12T01:42:17.733Z,99161.47
2022-09-12T01:44:53.378Z,99159.81
2022-09-12T01:47:48.103Z,99161.13
2022-09-12T01:50:25.145Z,99161.59
2022-09-12T01:53:04.975Z,99168.28
2022-09-12T01:55:41.546Z,99166.09
2022-09-12T01:58:21.070Z,99170.88
2022-09-12T02:01:03.519Z,99172.16
2022-09-12T02:03:52.087Z,99181.03
2022-09-12T02:06:29.288Z,99169.25
2022-09-12T02:09:36.772Z,99175.09
2022-09-12T02:12:08.735Z,99175.66
2022-09-12T02:14:51.226Z,99176.72
2022-09-12T02:17:26.220Z,99171.59
2022-09-12T02:20:46.776Z,99175.34
2022-09-12T02:23:23.298Z,99168.59
2022-09-12T02:25:57.626Z,99168.00
2022-09-12T02:28:33.010Z,99172.22
2022-09-12T02:31:23.280Z,99166.31
2022-09-12T02:34:15.830Z,99158.75
2022-09-12T02:37:01.303Z,99159.81
2022-09-12T02:39:28.927Z,99166.94
2022-09-12T02:42:00.301Z,99158.00
2022-09-12T02:44:33.588Z,99165.47
2022-09-12T02:47:14.375Z,99163.81
2022-09-12T02:49:41.480Z,99153.69
2022-09-12T02:52:09.010Z,99159.06
2022-09-12T02:54:38.103Z,99151.00
2022-09-12T02:57:23.398Z,99160.66
2022-09-12T02:59:59.179Z,99164.41
2022-09-12T03:02:49.773Z,99156.38
2022-09-12T03:05:56.117Z,99162.78
2022-09-12T03:09:05.949Z,99171.28
2022-09-12T03:12:08.420Z,99170.16
2022-09-12T03:14:41.213Z,99170.16
2022-09-12T03:17:44.013Z,99160.72
2022-09-12T03:20:30.492Z,99169.00
2022-09-12T03:23:15.057Z,99174.34
2022-09-12T03:25:57.294Z,99173.22
2022-09-12T03:28:24.875Z,99171.56
2022-09-12T03:30:54.310Z,99169.13
2022-09-12T03:33:25.020Z,99173.13
2022-09-12T03:35:54.903Z,99172.53
2022-09-12T03:38:21.900Z,99173.59
2022-09-12T03:40:54.044Z,99171.41
2022-09-12T03:43:23.055Z,99176.75
2022-09-12T03:45:53.459Z,99187.47
2022-09-12T03:48:20.759Z,99170.59
2022-09-12T03:50:48.445Z,99183.06
2022-09-12T03:53:17.345Z,99181.91
2022-09-12T03:55:45.038Z,99184.69
2022-09-12T03:58:12.766Z,99190.63
2022-09-12T04:00:40.240Z,99189.44
2022-09-12T04:03:07.349Z,99192.13
2022-09-12T04:05:35.982Z,99199.03
2022-09-12T04:08:03.564Z,99191.72
2022-09-12T04:10:32.520Z,99190.31
2022-09-12T04:13:00.138Z,99207.19
2022-09-12T04:15:27.145Z,99197.78
2022-09-12T04:17:54.490Z,99198.91
2022-09-12T04:20:21.756Z,99205.44
2022-09-12T04:22:48.877Z,99202.78
2022-09-12T04:25:17.220Z,99199.28
2022-09-12T04:27:44.664Z,99200.09
2022-09-12T04:30:12.354Z,99205.44
2022-09-12T04:32:40.866Z,99218.25
2022-09-12T04:35:08.551Z,99210.47
2022-09-12T04:37:36.058Z,99211.50
2022-09-12T04:40:03.373Z,99218.75
2022-09-12T04:42:30.807Z,99218.25
2022-09-12T04:44:58.247Z,99219.88
2022-09-12T04:47:25.286Z,99223.97
2022-09-12T04:49:52.705Z,99232.81
2022-09-12T04:52:20.133Z,99225.25
2022-09-12T04:54:47.205Z,99230.13
2022-09-12T04:57:14.729Z,99226.38
2022-09-12T04:59:42.700Z,99226.97
2022-09-12T05:02:10.117Z,99234.53
2022-09-12T05:04:37.602Z,99242.34
2022-09-12T05:07:05.769Z,99243.13
2022-09-12T05:09:32.877Z,99247.47
2022-09-12T05:12:05.321Z,99248.50
2022-09-12T05:14:34.601Z,99248.59
2022-09-12T05:17:04.569Z,99248.59
2022-09-12T05:19:32.912Z,99254.88
2022-09-12T05:22:00.278Z,99251.75
2022-09-12T05:24:28.772Z,99250.56
2022-09-12T05:26:55.910Z,99262.09
2022-09-12T05:29:25.020Z,99261.84
2022-09-12T05:31:52.954Z,99265.66
2022-09-12T05:34:20.940Z,99265.66
2022-09-12T05:36:48.353Z,99259.84
2022-09-12T05:39:16.075Z,99269.47
2022-09-12T05:41:43.106Z,99264.94
2022-09-12T05:44:14.239Z,99264.06
2022-09-12T05:46:44.213Z,99270.59
2022-09-12T05:49:14.347Z,99270.78
2022-09-12T05:51:45.392Z,99270.84
2022-09-12T05:54:18.078Z,99259.97
2022-09-12T05:56:45.685Z,99260.69
2022-09-12T05:59:20.076Z,99262.72
2022-09-12T06:01:48.845Z,99268.25
2022-09-12T06:04:16.626Z,99267.50
2022-09-12T06:06:46.303Z,99269.81
2022-09-12T06:09:17.894Z,99274.19
2022-09-12T06:11:46.488Z,99269.91
2022-09-12T06:14:17.782Z,99264.53
2022-09-12T06:16:47.064Z,99267.78
2022-09-12T06:19:20.072Z,99274.75
2022-09-12T06:21:50.014Z,99281.75
2022-09-12T06:24:19.373Z,99276.97
2022-09-12T06:26:48.371Z,99280.94
2022-09-12T06:29:16.616Z,99283.44
2022-09-12T06:31:44.782Z,99286.47
2022-09-12T06:34:16.097Z,99289.72
2022-09-12T06:36:49.015Z,99290.13
2022-09-12T06:39:19.983Z,99289.50
2022-09-12T06:41:49.914Z,99291.28
2022-09-12T06:44:21.626Z,99284.28
2022-09-12T06:46:49.889Z,99279.88
2022-09-12T06:49:17.737Z,99283.94
2022-09-12T06:51:45.102Z,99282.56
2022-09-12T06:54:15.482Z,99276.91
2022-09-12T06:56:42.989Z,99279.25
2022-09-12T06:59:10.450Z,99274.59
2022-09-12T07:01:38.214Z,99288.22
2022-09-12T07:04:05.740Z,99278.44
2022-09-12T07:06:40.514Z,99277.34
2022-09-12T07:09:12.835Z,99274.38
2022-09-12T07:11:43.079Z,99279.84
2022-09-12T07:14:14.436Z,99284.13
2022-09-12T07:16:42.117Z,99274.75
2022-09-12T07:19:10.238Z,99280.28
2022-09-12T07:21:40.232Z,99274.78
2022-09-12T07:24:10.671Z,99286.34
2022-09-12T07:26:40.638Z,99283.59
2022-09-12T07:29:35.338Z,99279.78
2022-09-12T07:32:02.290Z,99291.06
2022-09-12T07:34:29.735Z,99289.34
2022-09-12T07:36:56.914Z,99289.63
2022-09-12T07:39:24.414Z,99299.19
2022-09-12T07:41:51.552Z,99289.06
2022-09-12T07:44:18.636Z,99297.69
2022-09-12T07:46:46.283Z,99283.91
2022-09-12T07:49:13.493Z,99287.59
2022-09-12T07:51:41.123Z,99286.94
2022-09-12T07:54:09.431Z,99289.72
2022-09-12T07:56:39.461Z,99284.28
2022-09-12T07:59:08.507Z,99284.91
2022-09-12T08:01:36.386Z,99280.22
2022-09-12T08:04:05.103Z,99283.59
2022-09-12T08:06:35.918Z,99285.72
2022-09-12T08:09:05.422Z,99287.22
2022-09-12T08:11:33.784Z,99286.94
2022-09-12T08:14:02.906Z,99295.38
2022-09-12T08:16:33.015Z,99301.28
2022-09-12T08:19:02.733Z,99300.63
2022-09-12T08:21:32.585Z,99307.59
2022-09-12T08:24:04.343Z,99300.25
2022-09-12T08:26:34.841Z,99301.59
2022-09-12T08:29:02.425Z,99295.13
2022-09-12T08:31:31.878Z,99298.59
2022-09-12T08:33:59.177Z,99295.94
2022-09-12T08:36:29.563Z,99291.63
2022-09-12T08:39:02.679Z,99289.84
2022-09-12T08:41:46.517Z,99272.94
2022-09-12T08:44:47.459Z,99273.19
2022-09-12T08:47:28.869Z,99276.22
2022-09-12T08:50:15.607Z,99279.94
2022-09-12T08:53:12.626Z,99280.78
2022-09-12T08:55:56.014Z,99272.47
2022-09-12T08:58:27.127Z,99276.81
2022-09-12T09:01:14.058Z,99277.63
2022-09-12T09:03:56.575Z,99270.88
2022-09-12T09:06:34.046Z,99281.13
2022-09-12T09:09:29.423Z,99279.50
2022-09-12T09:12:21.938Z,99276.25
2022-09-12T09:15:38.402Z,99269.63
2022-09-12T09:18:18.711Z,99273.78
2022-09-12T09:21:03.563Z,99267.63
2022-09-12T09:23:40.997Z,99265.56
2022-09-12T09:26:27.292Z,99267.44
2022-09-12T09:29:30.391Z,99271.47
2022-09-12T09:32:03.482Z,99268.06
2022-09-12T09:34:32.199Z,99266.47
2022-09-12T09:37:34.737Z,99272.41
2022-09-12T09:40:27.449Z,99270.78
2022-09-12T09:43:23.994Z,99270.09
2022-09-12T09:45:53.213Z,99264.78
2022-09-12T09:48:30.942Z,99265.31
2022-09-12T09:51:02.434Z,99277.22
2022-09-12T09:53:40.133Z,99258.41
2022-09-12T09:56:39.978Z,99267.75
2022-09-12T09:59:25.818Z,99262.88
2022-09-12T10:02:03.795Z,99255.66
2022-09-12T10:04:41.493Z,99263.19
2022-09-12T10:07:21.703Z,99256.47
2022-09-12T10:10:17.673Z,99264.00
2022-09-12T10:12:45.781Z,99251.19
2022-09-12T10:15:26.127Z,99258.09
2022-09-12T10:17:55.639Z,99253.81
2022-09-12T10:20:46.561Z,99246.78
2022-09-12T10:23:18.869Z,99259.47
2022-09-12T10:25:53.661Z,99253.38
2022-09-12T10:28:40.325Z,99243.44
2022-09-12T10:31:15.621Z,99251.22
2022-09-12T10:33:52.855Z,99247.16
2022-09-12T10:36:21.823Z,99245.94
2022-09-12T10:38:58.020Z,99259.13
2022-09-12T10:41:26.115Z,99252.91
2022-09-12T10:43:53.207Z,99253.25
2022-09-12T10:46:23.911Z,99245.88
2022-09-12T10:49:13.899Z,99248.66
2022-09-12T10:51:40.923Z,99249.41
2022-09-12T10:54:13.148Z,99242.66
2022-09-12T10:57:11.891Z,99240.34
2022-09-12T10:59:58.592Z,99236.78
2022-09-12T11:02:49.073Z,99238.19
2022-09-12T11:05:58.113Z,99228.91
2022-09-12T11:09:05.517Z,99226.28
2022-09-12T11:12:02.174Z,99231.72
2022-09-12T11:15:17.268Z,99224.56
2022-09-12T11:18:24.403Z,99225.03
2022-09-12T11:21:19.290Z,99227.00
2022-09-12T11:24:23.129Z,99211.28
2022-09-12T11:27:12.050Z,99213.31
2022-09-12T11:29:59.862Z,99221.31
2022-09-12T11:33:11.782Z,99218.88
2022-09-12T11:35:55.267Z,99219.50
2022-09-12T11:38:55.639Z,99221.47
2022-09-12T11:41:39.383Z,99211.94
2022-09-12T11:44:19.251Z,99219.78
2022-09-12T11:46:51.198Z,99214.81
2022-09-12T11:49:40.278Z,99219.94
2022-09-12T11:52:22.358Z,99223.16
2022-09-12T11:55:06.051Z,99224.34
2022-09-12T11:57:52.701Z,99229.16
2022-09-12T12:00:22.650Z,99227.50
2022-09-12T12:03:11.731Z,99230.06
2022-09-12T12:06:04.277Z,99233.44
2022-09-12T12:08:39.755Z,99232.16
2022-09-12T12:11:09.293Z,99229.56
2022-09-12T12:13:58.915Z,99221.97
2022-09-12T12:16:41.084Z,99220.09
2022-09-12T12:19:14.377Z,99228.50
2022-09-12T12:21:48.211Z,99213.56
2022-09-12T12:24:22.453Z,99216.28
2022-09-12T12:27:22.483Z,99210.38
2022-09-12T12:29:50.059Z,99208.47
2022-09-12T12:32:17.633Z,99206.09
2022-09-12T12:34:47.065Z,99199.97
2022-09-12T12:37:23.318Z,99200.19
2022-09-12T12:40:07.488Z,99214.63
2022-09-12T12:42:35.077Z,99202.38
2022-09-12T12:45:17.197Z,99212.38
2022-09-12T12:47:53.538Z,99207.97
2022-09-12T12:50:26.438Z,99207.03
2022-09-12T12:53:07.838Z,99203.06
2022-09-12T12:55:43.927Z,99207.09
2022-09-12T12:58:39.593Z,99206.28
2022-09-12T13:01:23.615Z,99200.78
2022-09-12T13:04:04.639Z,99195.34
2022-09-12T13:06:56.949Z,99195.31
2022-09-12T13:09:36.839Z,99190.84
2022-09-12T13:12:19.923Z,99193.06
2022-09-12T13:14:53.245Z,99196.56
2022-09-12T13:17:41.321Z,99195.31
2022-09-12T13:20:29.443Z,99190.84
2022-09-12T13:22:58.034Z,99203.63
2022-09-12T13:25:32.211Z,99203.72
2022-09-12T13:28:11.882Z,99191.03
2022-09-12T13:30:45.196Z,99181.47
2022-09-12T13:33:33.186Z,99170.72
2022-09-12T13:36:25.351Z,99167.03
2022-09-12T13:39:28.080Z,99174.91
2022-09-12T13:42:23.522Z,99168.63
2022-09-12T13:44:58.748Z,99168.94
2022-09-12T13:47:35.799Z,99168.28
2022-09-12T13:50:08.875Z,99171.41
2022-09-12T13:52:39.090Z,99168.88
2022-09-12T13:55:31.380Z,99169.25
2022-09-12T13:58:24.155Z,99168.19
2022-09-12T14:01:09.795Z,99170.06
2022-09-12T14:04:08.719Z,99159.81
2022-09-12T14:06:47.665Z,99171.34
2022-09-12T14:09:25.350Z,99172.03
2022-09-12T14:11:53.836Z,99171.16
2022-09-12T14:14:36.514Z,99166.69
2022-09-12T14:17:24.045Z,99168.19
2022-09-12T14:19:52.807Z,99185.72
2022-09-12T14:22:20.287Z,99180.53
2022-09-12T14:24:51.812Z,99180.00
2022-09-12T14:27:28.365Z,99177.69
2022-09-12T14:30:19.976Z,99170.31
2022-09-12T14:33:12.323Z,99163.75
2022-09-12T14:36:15.773Z,99164.25
2022-09-12T14:38:48.794Z,99167.91
2022-09-12T14:41:28.902Z,99177.19
2022-09-12T14:44:02.780Z,99167.16
2022-09-12T14:46:38.809Z,99162.53
2022-09-12T14:49:21.300Z,99173.25
2022-09-12T14:51:55.906Z,99166.78
2022-09-12T14:54:36.295Z,99177.47
2022-09-12T14:57:39.343Z,99167.38
2022-09-12T15:00:12.479Z,99168.56
2022-09-12T15:02:44.856Z,99166.75
2022-09-12T15:05:12.273Z,99172.78
2022-09-12T15:07:56.094Z,99167.94
2022-09-12T15:10:37.632Z,99175.75
2022-09-12T15:13:16.825Z,99181.94
2022-09-12T15:15:52.363Z,99172.72
2022-09-12T15:18:21.248Z,99177.16
2022-09-12T15:20:53.944Z,99174.69
2022-09-12T15:23:42.772Z,99175.44
2022-09-12T15:26:19.861Z,99174.69
2022-09-12T15:28:47.543Z,99179.72
2022-09-12T15:31:31.340Z,99177.88
2022-09-12T15:34:02.324Z,99176.41
2022-09-12T15:36:30.741Z,99180.34
2022-09-12T15:38:58.577Z,99184.47
2022-09-12T15:41:36.896Z,99178.91
2022-09-12T15:44:12.188Z,99180.81
2022-09-12T15:46:40.085Z,99175.53
2022-09-12T15:49:07.514Z,99181.94
2022-09-12T15:51:34.598Z,99181.25
2022-09-12T15:54:04.383Z,99179.03
2022-09-12T15:56:31.627Z,99177.50
2022-09-12T15:58:59.999Z,99182.19
2022-09-12T16:01:29.867Z,99176.25
2022-09-12T16:03:57.833Z,99171.41
2022-09-12T16:06:25.410Z,99173.69
2022-09-12T16:08:52.866Z,99172.81
2022-09-12T16:11:27.247Z,99178.81
2022-09-12T16:13:56.830Z,99184.25
2022-09-12T16:16:24.237Z,99184.25
2022-09-12T16:18:51.742Z,99184.47
2022-09-12T16:21:18.932Z,99183.69
2022-09-12T16:23:48.044Z,99191.28
2022-09-12T16:26:16.819Z,99186.47
2022-09-12T16:28:44.602Z,99189.78
2022-09-12T16:31:15.882Z,99188.22
2022-09-12T16:33:43.054Z,99188.28
2022-09-12T16:36:14.927Z,99191.09
2022-09-12T16:38:47.477Z,99193.38
2022-09-12T16:41:17.118Z,99189.13
2022-09-12T16:43:46.226Z,99190.28
2022-09-12T16:46:20.094Z,99199.06
2022-09-12T16:48:54.367Z,99206.19
2022-09-12T16:51:30.605Z,99203.53
2022-09-12T16:53:58.429Z,99210.66
2022-09-12T16:56:25.803Z,99208.28
2022-09-12T16:58:54.334Z,99207.81
2022-09-12T17:01:25.496Z,99212.78
2022-09-12T17:03:55.085Z,99206.59
2022-09-12T17:06:23.850Z,99213.19
2022-09-12T17:08:54.281Z,99211.34
2022-09-12T17:11:25.439Z,99214.09
2022-09-12T17:14:11.377Z,99207.94
2022-09-12T17:16:51.413Z,99210.75
2022-09-12T17:19:27.928Z,99211.91
2022-09-12T17:21:57.001Z,99223.38
2022-09-12T17:24:24.978Z,99227.78
2022-09-12T17:26:53.445Z,99222.97
2022-09-12T17:29:21.250Z,99231.44
2022-09-12T17:31:49.217Z,99227.94
2022-09-12T17:34:17.678Z,99226.63
2022-09-12T17:36:48.191Z,99234.28
2022-09-12T17:39:15.770Z,99226.44
2022-09-12T17:41:43.750Z,99227.59
2022-09-12T17:44:15.179Z,99227.13
2022-09-12T17:46:53.029Z,99237.44
2022-09-12T17:49:22.017Z,99242.63
2022-09-12T17:51:49.378Z,99238.63
2022-09-12T17:54:18.755Z,99241.13
2022-09-12T17:56:49.685Z,99237.63
2022-09-12T17:59:21.402Z,99243.88
2022-09-12T18:02:07.594Z,99250.69
2022-09-12T18:04:35.576Z,99252.59
2022-09-12T18:07:03.190Z,99262.06
2022-09-12T18:09:30.728Z,99262.09
2022-09-12T18:11:58.957Z,99269.16
2022-09-12T18:14:28.242Z,99271.06
2022-09-12T18:16:57.261Z,99266.47
2022-09-12T18:19:24.736Z,99261.63
2022-09-12T18:21:52.076Z,99268.66
2022-09-12T18:24:20.001Z,99262.19
2022-09-12T18:26:47.794Z,99267.31
2022-09-12T18:29:19.932Z,99261.94
2022-09-12T18:31:47.110Z,99271.94
2022-09-12T18:34:16.993Z,99274.63
2022-09-12T18:36:47.788Z,99264.94
2022-09-12T18:39:17.524Z,99275.22
2022-09-12T18:41:44.903Z,99275.22
2022-09-12T18:44:13.085Z,99275.22
2022-09-12T18:46:40.737Z,99284.94
2022-09-12T18:49:09.311Z,99289.22
2022-09-12T18:51:39.937Z,99279.50
2022-09-12T18:54:13.707Z,99282.75
2022-09-12T18:56:43.780Z,99284.09
2022-09-12T18:59:13.969Z,99286.50
2022-09-12T19:01:43.225Z,99292.44
2022-09-12T19:04:13.549Z,99284.38
2022-09-12T19:06:46.930Z,99288.13
2022-09-12T19:09:17.615Z,99281.66
2022-09-12T19:11:50.041Z,99278.38
2022-09-12T19:14:22.495Z,99278.94
2022-09-12T19:16:52.491Z,99274.91
2022-09-12T19:19:21.267Z,99276.25
2022-09-12T19:21:48.288Z,99276.75
2022-09-12T19:24:16.533Z,99272.72
2022-09-12T19:26:45.193Z,99274.06
2022-09-12T19:29:13.813Z,99257.56
2022-09-12T19:31:41.228Z,99258.91
2022-09-12T19:34:10.695Z,99273.50
2022-09-12T19:36:45.427Z,99279.69
2022-09-12T19:39:14.854Z,99271.81
2022-09-12T19:41:42.936Z,99266.41
2022-09-12T19:44:11.409Z,99265.34
2022-09-12T19:46:39.042Z,99262.63
2022-09-12T19:49:06.213Z,99264.22
2022-09-12T19:51:33.340Z,99271.22
2022-09-12T19:54:01.097Z,99273.06
2022-09-12T19:56:28.114Z,99271.16
2022-09-12T19:58:56.688Z,99273.84
2022-09-12T20:01:30.148Z,99260.34
2022-09-12T20:03:58.473Z,99254.09
2022-09-12T20:06:27.341Z,99263.53
2022-09-12T20:08:55.466Z,99259.16
2022-09-12T20:11:25.466Z,99257.28
2022-09-12T20:13:53.097Z,99249.97
2022-09-12T20:16:28.408Z,99251.03
2022-09-12T20:19:09.609Z,99260.16
2022-09-12T20:21:37.250Z,99250.97
2022-09-12T20:24:13.148Z,99257.38
2022-09-12T20:26:42.019Z,99252.50
2022-09-12T20:29:10.590Z,99248.19
2022-09-12T20:31:40.835Z,99249.22
2022-09-12T20:34:15.997Z,99250.25
2022-09-12T20:36:43.463Z,99248.91
2022-09-12T20:39:17.843Z,99241.56
2022-09-12T20:41:45.491Z,99244.75
2022-09-12T20:44:13.358Z,99245.78
2022-09-12T20:46:41.048Z,99250.31
2022-09-12T20:49:08.869Z,99246.75
2022-09-12T20:51:37.117Z,99248.31
2022-09-12T20:54:07.223Z,99247.22
2022-09-12T20:56:37.439Z,99243.94
2022-09-12T20:59:05.881Z,99248.22
2022-09-12T21:01:33.585Z,99240.63
2022-09-12T21:04:02.367Z,99252.97
2022-09-12T21:06:31.303Z,99251.88
2022-09-12T21:09:00.395Z,99249.13
2022-09-12T21:11:29.026Z,99250.16
2022-09-12T21:13:56.785Z,99240.94
2022-09-12T21:16:24.257Z,99248.72
2022-09-12T21:18:58.587Z,99248.69
2022-09-12T21:21:27.277Z,99252.69
2022-09-12T21:24:07.518Z,99248.31
2022-09-12T21:26:34.786Z,99245.06
2022-09-12T21:29:06.717Z,99241.50
2022-09-12T21:31:34.077Z,99241.22
2022-09-12T21:34:02.242Z,99244.66
2022-09-12T21:36:30.858Z,99242.69
2022-09-12T21:38:59.287Z,99243.22
2022-09-12T21:41:26.612Z,99237.25
2022-09-12T21:43:54.289Z,99239.34
2022-09-12T21:46:21.329Z,99237.97
2022-09-12T21:48:48.354Z,99237.66
2022-09-12T21:51:15.865Z,99236.78
2022-09-12T21:53:43.937Z,99231.09
2022-09-12T21:56:11.101Z,99246.06
2022-09-12T21:58:39.237Z,99233.38
2022-09-12T22:01:11.706Z,99240.56
2022-09-12T22:03:39.172Z,99239.44
2022-09-12T22:06:07.443Z,99230.81
2022-09-12T22:08:37.268Z,99232.94
2022-09-12T22:11:09.532Z,99238.47
2022-09-12T22:13:42.654Z,99234.41
2022-09-12T22:16:10.925Z,99235.97
2022-09-12T22:18:38.490Z,99235.09
2022-09-12T22:21:17.023Z,99234.78
2022-09-12T22:24:03.668Z,99241.13
2022-09-12T22:26:36.482Z,99238.13
2022-09-12T22:29:04.049Z,99229.19
2022-09-12T22:31:31.729Z,99230.25
2022-09-12T22:33:59.418Z,99225.88
2022-09-12T22:36:30.916Z,99223.69
2022-09-12T22:38:59.672Z,99219.84
2022-09-12T22:41:27.566Z,99221.66
2022-09-12T22:43:54.694Z,99215.47
2022-09-12T22:46:22.053Z,99222.63
2022-09-12T22:48:49.298Z,99219.63
2022-09-12T22:51:16.866Z,99219.56
2022-09-12T22:53:44.177Z,99217.34
2022-09-12T22:56:11.497Z,99215.97
2022-09-12T22:58:38.639Z,99221.00
2022-09-12T23:01:06.832Z,99216.13
2022-09-12T23:03:35.203Z,99216.63
2022-09-12T23:06:04.193Z,99219.53
2022-09-12T23:08:31.993Z,99219.53
2022-09-12T23:11:13.611Z,99216.75
2022-09-12T23:13:47.730Z,99220.78
2022-09-12T23:16:25.039Z,99215.28
2022-09-12T23:18:52.484Z,99215.75
2022-09-12T23:21:21.865Z,99206.81
2022-09-12T23:23:49.909Z,99211.03
2022-09-12T23:26:23.418Z,99214.94
2022-09-12T23:29:00.681Z,99211.09
2022-09-12T23:31:31.809Z,99207.03
2022-09-12T23:34:03.334Z,99213.59
2022-09-12T23:36:34.058Z,99221.56
2022-09-12T23:39:03.519Z,99220.41
2022-09-12T23:41:31.077Z,99221.22
2022-09-12T23:43:59.008Z,99219.25
2022-09-12T23:46:26.337Z,99212.72
2022-09-12T23:48:53.517Z,99215.09
2022-09-12T23:51:22.001Z,99219.06
2022-09-12T23:53:49.782Z,99218.97
2022-09-12T23:56:16.863Z,99220.16
2022-09-12T23:58:43.895Z,99218.66
